Time;durP1;ratioP1;P1;durP2;ratioP2;P2;SDS_P1;SDS_P2;PMS_P1;PMS_P2;Temp;Humidity;BMP_temperature;BMP_pressure;BME280_temperature;BME280_humidity;BME280_pressure;Samples;Min_cycle;Max_cycle;Signal;HPM_P1;HPM_P2
2022/05/10 00:00:53;;;;;;;2.80;2.10;;;19.80;76.10;;;;;;5106966;27;45214;-82
2022/05/10 00:03:22;;;;;;;4.07;2.20;;;19.80;76.00;;;;;;5100278;27;45573;-82
2022/05/10 00:05:49;;;;;;;2.63;2.10;;;19.80;77.00;;;;;;5109447;27;45568;-82
2022/05/10 00:08:18;;;;;;;2.67;2.10;;;19.80;76.00;;;;;;5107442;27;45502;-82
2022/05/10 00:10:46;;;;;;;2.60;1.83;;;19.80;76.00;;;;;;5099309;27;45494;-82
2022/05/10 00:13:14;;;;;;;3.75;2.35;;;19.80;76.00;;;;;;5104853;27;45315;-82
2022/05/10 00:15:42;;;;;;;3.13;2.25;;;19.80;76.00;;;;;;5111169;27;45555;-82
2022/05/10 00:18:13;;;;;;;2.40;2.20;;;19.80;76.10;;;;;;5109088;27;45696;-82
2022/05/10 00:20:41;;;;;;;3.22;2.30;;;19.80;76.10;;;;;;5105083;27;45634;-82
2022/05/10 00:23:08;;;;;;;2.95;2.45;;;19.80;76.10;;;;;;5106600;27;45346;-82
2022/05/10 00:25:34;;;;;;;2.40;2.17;;;19.80;77.20;;;;;;5110906;27;45702;-81
2022/05/10 00:28:01;;;;;;;2.45;2.15;;;19.80;76.00;;;;;;5106191;27;45246;-82
2022/05/10 00:30:28;;;;;;;2.63;2.35;;;20.00;76.30;;;;;;5108793;27;45137;-81
2022/05/10 00:32:56;;;;;;;3.40;2.28;;;19.80;76.10;;;;;;5110505;27;47392;-82
2022/05/10 00:35:27;;;;;;;3.70;2.53;;;19.80;76.20;;;;;;5102722;27;45263;-82
2022/05/10 00:37:56;;;;;;;3.63;2.33;;;19.80;76.20;;;;;;5107442;27;45687;-82
2022/05/10 00:40:27;;;;;;;2.75;2.45;;;19.80;76.30;;;;;;5106119;27;45388;-81
2022/05/10 00:42:58;;;;;;;2.63;2.20;;;19.80;76.30;;;;;;5108951;27;47381;-81
2022/05/10 00:45:32;;;;;;;2.70;2.13;;;19.80;76.40;;;;;;5104903;27;45218;-81
2022/05/10 00:48:06;;;;;;;3.70;2.78;;;19.80;76.30;;;;;;5106747;27;45429;-82
2022/05/10 00:50:40;;;;;;;2.70;2.30;;;19.80;76.40;;;;;;5109534;27;45188;-82
2022/05/10 00:53:10;;;;;;;2.78;2.30;;;19.80;76.30;;;;;;5107585;27;46184;-82
2022/05/10 00:55:42;;;;;;;2.92;2.50;;;19.80;76.20;;;;;;5113922;27;45644;-81
2022/05/10 00:58:18;;;;;;;3.78;2.50;;;19.80;76.50;;;;;;5111342;27;45192;-81
2022/05/10 01:00:46;;;;;;;3.15;2.42;;;19.80;76.60;;;;;;5107558;27;45311;-81
2022/05/10 01:03:18;;;;;;;3.35;2.33;;;19.80;76.60;;;;;;5108531;27;46637;-82
2022/05/10 01:05:52;;;;;;;2.75;2.45;;;19.80;76.60;;;;;;5113370;27;45372;-82
2022/05/10 01:08:22;;;;;;;3.08;2.30;;;19.80;76.70;;;;;;5110282;27;45210;-82
2022/05/10 01:10:56;;;;;;;3.13;2.60;;;19.80;76.60;;;;;;5108329;27;45441;-82
2022/05/10 01:13:28;;;;;;;2.78;2.33;;;19.90;76.70;;;;;;5096215;27;47848;-82
2022/05/10 01:16:06;;;;;;;4.10;2.80;;;19.80;76.50;;;;;;5110494;27;45256;-82
2022/05/10 01:18:33;;;;;;;3.10;2.65;;;19.90;76.50;;;;;;5104852;27;45377;-82
2022/05/10 01:21:24;;;;;;;2.83;2.30;;;19.80;76.40;;;;;;5117059;27;45198;-82
2022/05/10 01:24:06;;;;;;;3.45;2.70;;;19.80;76.40;;;;;;5105121;27;47380;-82
2022/05/10 01:26:48;;;;;;;3.00;2.55;;;19.80;76.40;;;;;;5105417;27;45641;-82
2022/05/10 01:29:21;;;;;;;3.15;2.53;;;19.90;76.40;;;;;;5107200;27;45181;-82
2022/05/10 01:33:29;;;;;;;3.65;2.40;;;19.90;76.30;;;;;;5111984;27;45101;-81
2022/05/10 01:34:39;;;;;;;2.53;2.25;;;19.90;76.40;;;;;;5105980;27;45316;-82
2022/05/10 01:37:10;;;;;;;3.67;2.67;;;19.90;76.30;;;;;;5106632;27;45455;-82
2022/05/10 01:39:45;;;;;;;3.45;2.70;;;19.90;76.40;;;;;;5110371;27;45317;-82
2022/05/10 01:42:18;;;;;;;3.50;2.75;;;19.80;76.40;;;;;;5107971;27;45278;-82
2022/05/10 01:44:51;;;;;;;3.22;2.90;;;19.80;76.40;;;;;;5108538;27;47888;-81
2022/05/10 01:47:35;;;;;;;3.53;2.78;;;19.80;76.30;;;;;;5103952;27;45186;-82
2022/05/10 01:50:05;;;;;;;2.75;2.47;;;19.80;76.40;;;;;;5106720;27;45238;-82
2022/05/10 01:52:37;;;;;;;3.08;2.20;;;19.80;76.30;;;;;;5100299;27;45399;-81
2022/05/10 01:55:15;;;;;;;3.33;2.80;;;19.80;76.30;;;;;;5106441;27;46088;-82
2022/05/10 01:57:42;;;;;;;3.85;2.78;;;19.90;76.30;;;;;;5112625;27;45338;-82
2022/05/10 02:00:14;;;;;;;3.13;2.63;;;19.90;76.30;;;;;;5107736;27;45187;-81
2022/05/10 02:02:47;;;;;;;3.10;2.80;;;19.90;76.30;;;;;;5107940;27;45480;-82
2022/05/10 02:05:21;;;;;;;3.88;2.88;;;19.90;76.30;;;;;;5106888;27;46486;-82
2022/05/10 02:07:51;;;;;;;2.97;2.63;;;19.90;76.30;;;;;;5103410;27;45882;-81
2022/05/10 02:10:23;;;;;;;3.13;2.75;;;19.90;76.20;;;;;;5109075;27;45350;-81
2022/05/10 02:12:58;;;;;;;3.05;2.50;;;19.90;76.20;;;;;;5108328;27;45157;-82
2022/05/10 02:15:33;;;;;;;3.13;2.65;;;19.90;76.20;;;;;;5101392;27;46219;-81
2022/05/10 02:18:09;;;;;;;3.17;2.50;;;19.90;76.10;;;;;;5106640;27;45550;-82
2022/05/10 02:20:42;;;;;;;3.53;2.60;;;19.90;76.10;;;;;;5104347;27;45563;-82
2022/05/10 02:23:14;;;;;;;3.20;2.60;;;19.90;76.10;;;;;;5107574;27;45392;-82
2022/05/10 02:25:45;;;;;;;4.10;2.70;;;19.90;76.00;;;;;;5102181;27;45230;-81
2022/05/10 02:28:20;;;;;;;2.92;2.63;;;19.90;76.10;;;;;;5109359;27;45257;-82
2022/05/10 02:30:51;;;;;;;5.15;2.90;;;19.90;76.00;;;;;;5108330;27;45257;-82
2022/05/10 02:33:18;;;;;;;3.13;2.50;;;19.90;75.90;;;;;;5103173;27;45771;-81
2022/05/10 02:35:49;;;;;;;2.92;2.47;;;19.90;75.90;;;;;;5102826;27;47182;-82
2022/05/10 02:38:20;;;;;;;3.17;2.88;;;19.90;76.00;;;;;;5106396;27;45868;-82
2022/05/10 02:40:48;;;;;;;2.72;2.40;;;19.90;75.90;;;;;;5105719;27;45355;-82
2022/05/10 02:43:19;;;;;;;4.55;2.78;;;19.80;75.80;;;;;;5103892;27;45260;-81
2022/05/10 02:45:48;;;;;;;4.30;2.63;;;19.90;75.90;;;;;;5105180;27;45526;-82
2022/05/10 02:48:17;;;;;;;3.75;2.58;;;19.80;75.80;;;;;;5106831;27;45261;-82
2022/05/10 02:50:44;;;;;;;3.80;2.95;;;19.80;76.80;;;;;;5105457;27;45393;-81
2022/05/10 02:53:11;;;;;;;3.17;2.70;;;19.90;75.90;;;;;;5107579;27;45489;-82
2022/05/10 02:55:44;;;;;;;3.13;2.75;;;19.80;75.70;;;;;;5104365;27;46061;-82
2022/05/10 02:58:17;;;;;;;3.75;2.70;;;19.90;75.70;;;;;;5107963;27;45136;-81
2022/05/10 03:00:44;;;;;;;3.38;2.80;;;19.90;75.70;;;;;;5107627;27;45133;-82
2022/05/10 03:03:16;;;;;;;3.50;2.80;;;19.80;75.60;;;;;;5104933;27;45092;-82
2022/05/10 03:05:43;;;;;;;3.50;2.67;;;19.90;75.60;;;;;;5109792;27;46511;-81
2022/05/10 03:08:12;;;;;;;3.88;2.80;;;19.90;75.60;;;;;;5109164;27;45180;-82
2022/05/10 03:10:38;;;;;;;3.72;2.65;;;19.90;75.50;;;;;;5107269;27;45497;-81
2022/05/10 03:13:05;;;;;;;3.47;2.63;;;19.90;75.50;;;;;;5105524;27;45144;-81
2022/05/10 03:15:33;;;;;;;3.50;2.58;;;19.90;75.40;;;;;;5106017;27;47250;-81
2022/05/10 03:17:59;;;;;;;5.15;3.20;;;19.90;75.40;;;;;;5108840;27;45171;-82
2022/05/10 03:20:28;;;;;;;3.97;2.85;;;19.90;75.30;;;;;;5106781;27;45349;-82
2022/05/10 03:22:55;;;;;;;3.72;2.53;;;19.90;75.30;;;;;;5105922;27;45267;-81
2022/05/10 03:25:22;;;;;;;3.75;2.45;;;19.90;75.30;;;;;;5105441;27;47996;-81
2022/05/10 03:27:49;;;;;;;3.60;2.85;;;19.90;75.30;;;;;;5105981;27;46289;-82
2022/05/10 03:30:17;;;;;;;4.00;2.78;;;19.90;75.20;;;;;;5109431;27;45647;-81
2022/05/10 03:32:45;;;;;;;3.13;2.40;;;19.80;75.10;;;;;;5106058;27;45500;-82
2022/05/10 03:35:15;;;;;;;3.50;2.70;;;19.80;75.20;;;;;;5101392;27;46587;-82
2022/05/10 03:37:44;;;;;;;3.88;2.70;;;19.80;75.10;;;;;;5106666;27;45857;-81
2022/05/10 03:40:11;;;;;;;3.65;2.67;;;19.90;75.20;;;;;;5101455;27;45600;-81
2022/05/10 03:42:44;;;;;;;6.72;3.17;;;19.80;75.10;;;;;;5102509;27;45350;-81
2022/05/10 03:45:11;;;;;;;4.43;2.80;;;19.80;75.00;;;;;;5106978;27;46073;-82
2022/05/10 03:47:38;;;;;;;4.75;2.80;;;19.80;75.10;;;;;;5098352;27;45384;-81
2022/05/10 03:50:07;;;;;;;3.17;2.65;;;19.80;75.00;;;;;;5099715;27;45309;-82
2022/05/10 03:52:34;;;;;;;3.70;2.88;;;19.90;75.00;;;;;;5102010;27;45215;-81
2022/05/10 03:55:03;;;;;;;2.97;2.60;;;19.80;74.90;;;;;;5099433;27;45470;-81
2022/05/10 03:57:30;;;;;;;4.53;3.13;;;19.90;74.90;;;;;;5102667;27;45534;-81
2022/05/10 03:59:56;;;;;;;3.10;2.63;;;19.80;74.80;;;;;;5103943;27;45428;-82
2022/05/10 04:02:23;;;;;;;3.42;2.90;;;19.90;74.90;;;;;;5103356;27;46810;-81
2022/05/10 04:04:50;;;;;;;2.75;2.33;;;19.90;74.80;;;;;;5099659;27;47064;-82
2022/05/10 04:07:17;;;;;;;3.22;2.85;;;19.90;74.80;;;;;;5105817;27;45301;-82
2022/05/10 04:09:44;;;;;;;3.53;2.70;;;19.80;74.70;;;;;;5105470;27;45421;-82
2022/05/10 04:12:12;;;;;;;4.72;3.28;;;19.90;74.80;;;;;;5107498;27;45204;-82
2022/05/10 04:14:39;;;;;;;3.75;2.97;;;19.90;75.00;;;;;;5105287;27;45412;-82
2022/05/10 04:17:06;;;;;;;4.65;3.22;;;19.80;75.30;;;;;;5106137;27;45263;-83
2022/05/10 04:19:33;;;;;;;4.75;3.17;;;19.80;75.50;;;;;;5107269;27;45283;-83
2022/05/10 04:21:59;;;;;;;3.70;2.72;;;19.80;75.10;;;;;;5106663;27;45470;-84
2022/05/10 04:24:26;;;;;;;4.72;2.97;;;19.90;74.40;;;;;;5109467;27;45283;-83
2022/05/10 04:26:53;;;;;;;4.10;2.88;;;19.90;73.30;;;;;;5103647;27;45256;-83
2022/05/10 04:29:21;;;;;;;4.80;2.90;;;19.90;72.80;;;;;;5098015;27;45465;-83
2022/05/10 04:31:48;;;;;;;4.97;3.00;;;19.80;72.40;;;;;;5107409;27;45159;-82
2022/05/10 04:34:15;;;;;;;3.13;2.78;;;19.80;72.10;;;;;;5104251;27;45460;-83
2022/05/10 04:36:41;;;;;;;3.55;2.65;;;19.80;72.00;;;;;;5100697;27;45155;-83
2022/05/10 04:39:08;;;;;;;3.67;2.83;;;19.80;72.00;;;;;;5104541;27;45304;-83
2022/05/10 04:41:37;;;;;;;5.22;3.20;;;19.80;72.30;;;;;;5105707;27;45273;-83
2022/05/10 04:44:06;;;;;;;5.07;3.57;;;19.80;72.60;;;;;;5104182;27;48091;-84
2022/05/10 04:46:36;;;;;;;4.75;3.33;;;19.70;73.10;;;;;;5106829;27;45606;-82
2022/05/10 04:49:04;;;;;;;5.88;3.47;;;19.80;73.30;;;;;;5100238;27;45329;-82
2022/05/10 04:51:31;;;;;;;5.93;3.10;;;19.80;73.10;;;;;;5105799;27;45437;-82
2022/05/10 04:53:58;;;;;;;3.92;2.75;;;19.80;72.60;;;;;;5105664;27;46127;-81
2022/05/10 04:56:25;;;;;;;3.55;2.97;;;19.90;72.70;;;;;;5105306;27;45460;-82
2022/05/10 04:58:54;;;;;;;4.28;2.88;;;19.90;73.30;;;;;;5102855;27;45270;-82
2022/05/10 05:01:25;;;;;;;5.43;2.50;;;19.90;73.50;;;;;;5093799;27;45570;-82
2022/05/10 05:03:56;;;;;;;5.50;2.63;;;19.90;73.80;;;;;;5099900;27;46204;-82
2022/05/10 05:06:24;;;;;;;3.63;2.40;;;19.90;74.00;;;;;;5106765;27;45538;-82
2022/05/10 05:08:51;;;;;;;3.85;2.80;;;20.00;74.20;;;;;;5108179;27;45335;-82
2022/05/10 05:11:18;;;;;;;3.03;2.72;;;19.90;74.10;;;;;;5107058;27;45289;-81
2022/05/10 05:13:45;;;;;;;3.13;2.80;;;19.90;74.20;;;;;;5110675;27;47534;-82
2022/05/10 05:16:12;;;;;;;3.50;2.75;;;20.00;74.50;;;;;;5103476;27;45345;-82
2022/05/10 05:18:39;;;;;;;2.88;2.33;;;20.00;74.60;;;;;;5108165;27;45264;-82
2022/05/10 05:21:07;;;;;;;4.07;2.70;;;19.90;74.60;;;;;;5110163;27;45235;-82
2022/05/10 05:23:34;;;;;;;2.97;2.30;;;19.90;74.80;;;;;;5104807;27;47391;-82
2022/05/10 05:26:00;;;;;;;3.13;2.40;;;19.90;74.90;;;;;;5108254;27;45185;-83
2022/05/10 05:28:29;;;;;;;3.13;2.65;;;19.90;74.90;;;;;;5106641;27;45618;-82
2022/05/10 05:30:57;;;;;;;3.72;2.60;;;19.90;75.00;;;;;;5108382;27;45302;-82
2022/05/10 05:33:24;;;;;;;3.67;2.70;;;19.90;75.20;;;;;;5109158;27;45286;-82
2022/05/10 05:35:50;;;;;;;3.70;2.78;;;19.90;75.20;;;;;;5106515;27;45116;-82
2022/05/10 05:38:18;;;;;;;3.72;2.72;;;19.90;75.30;;;;;;5089757;28;45155;-82
2022/05/10 05:40:45;;;;;;;3.67;2.60;;;19.90;75.30;;;;;;5099789;27;45627;-82
2022/05/10 05:43:18;;;;;;;3.00;2.60;;;19.90;75.40;;;;;;5109033;27;46617;-82
2022/05/10 05:45:45;;;;;;;3.88;2.80;;;19.90;75.50;;;;;;5108566;27;45452;-82
2022/05/10 05:48:13;;;;;;;4.22;2.25;;;19.90;75.40;;;;;;5109653;27;45404;-82
2022/05/10 05:50:40;;;;;;;3.10;2.78;;;20.00;75.40;;;;;;5111902;27;45590;-83
2022/05/10 05:53:07;;;;;;;3.40;2.45;;;19.90;75.30;;;;;;5107866;27;45846;-83
2022/05/10 05:55:36;;;;;;;4.30;2.65;;;20.00;75.40;;;;;;5110407;27;45647;-83
2022/05/10 05:58:03;;;;;;;3.35;2.75;;;20.00;75.40;;;;;;5109752;27;45360;-83
2022/05/10 06:00:30;;;;;;;3.03;2.47;;;19.90;75.30;;;;;;5108366;27;45101;-83
2022/05/10 06:02:57;;;;;;;2.60;2.40;;;20.00;75.40;;;;;;5109886;27;46207;-83
2022/05/10 06:05:27;;;;;;;3.63;2.58;;;20.00;75.40;;;;;;5107134;27;45251;-83
2022/05/10 06:07:53;;;;;;;5.28;2.58;;;19.90;75.30;;;;;;5110852;27;45195;-83
2022/05/10 06:10:21;;;;;;;4.15;2.60;;;20.00;75.40;;;;;;5107939;27;45358;-83
2022/05/10 06:12:49;;;;;;;3.25;2.40;;;20.00;75.50;;;;;;5109494;27;46291;-83
2022/05/10 06:15:19;;;;;;;2.75;2.17;;;20.00;75.60;;;;;;5109457;27;45265;-83
2022/05/10 06:17:47;;;;;;;3.08;2.33;;;20.00;75.60;;;;;;5107110;27;45262;-83
2022/05/10 06:20:17;;;;;;;3.38;2.70;;;20.00;75.60;;;;;;5108528;27;45441;-83
2022/05/10 06:22:45;;;;;;;2.97;2.30;;;20.00;75.60;;;;;;5109324;27;45536;-83
2022/05/10 06:25:13;;;;;;;3.30;2.50;;;20.00;75.60;;;;;;5108156;27;45254;-83
2022/05/10 06:27:40;;;;;;;3.83;2.70;;;20.00;75.70;;;;;;5108308;27;45220;-83
2022/05/10 06:30:09;;;;;;;3.00;2.28;;;20.00;75.90;;;;;;5107204;27;45231;-82
2022/05/10 06:32:36;;;;;;;3.13;2.67;;;20.00;75.90;;;;;;5109779;27;47907;-82
2022/05/10 06:35:04;;;;;;;2.90;2.60;;;20.00;76.10;;;;;;5124932;27;45106;-82
2022/05/10 06:40:17;;;;;;;3.15;2.50;;;20.00;76.10;;;;;;5098491;27;45260;-83
2022/05/10 06:42:44;;;;;;;3.42;2.25;;;20.00;76.30;;;;;;5108122;27;47443;-83
2022/05/10 06:45:15;;;;;;;4.05;2.60;;;20.00;76.20;;;;;;5106834;27;45190;-82
2022/05/10 06:47:46;;;;;;;4.05;2.67;;;19.80;76.10;;;;;;5108485;27;45250;-83
2022/05/10 06:50:15;;;;;;;3.35;2.60;;;20.00;76.30;;;;;;5107060;27;45340;-83
2022/05/10 06:52:42;;;;;;;7.53;2.72;;;19.90;76.10;;;;;;5109524;27;47102;-83
2022/05/10 06:55:10;;;;;;;2.58;2.28;;;20.00;75.90;;;;;;5106837;27;45322;-83
2022/05/10 06:57:37;;;;;;;7.65;3.13;;;20.00;75.90;;;;;;5107426;27;46197;-83
2022/05/10 07:00:05;;;;;;;3.47;2.55;;;20.00;76.00;;;;;;5111194;27;45409;-83
2022/05/10 07:02:33;;;;;;;3.00;2.08;;;19.90;76.00;;;;;;5129765;27;46405;-83
2022/05/10 07:05:00;;;;;;;2.70;2.28;;;20.00;76.20;;;;;;5117227;27;45604;-83
2022/05/10 07:07:27;;;;;;;3.08;2.58;;;19.90;76.10;;;;;;5113832;27;45291;-83
2022/05/10 07:09:54;;;;;;;3.58;2.50;;;20.00;76.20;;;;;;5103338;27;45676;-83
2022/05/10 07:12:21;;;;;;;4.57;2.60;;;20.00;76.30;;;;;;5106660;27;46194;-83
2022/05/10 07:14:48;;;;;;;3.08;2.35;;;19.90;76.20;;;;;;5108818;27;45395;-83
2022/05/10 07:17:15;;;;;;;2.38;2.17;;;20.00;76.30;;;;;;5105894;27;45420;-83
2022/05/10 07:19:44;;;;;;;4.05;2.40;;;20.00;76.30;;;;;;5108254;27;45383;-83
2022/05/10 07:22:11;;;;;;;3.03;2.20;;;20.00;76.50;;;;;;5108733;27;46205;-83
2022/05/10 07:24:37;;;;;;;3.83;2.50;;;20.00;76.50;;;;;;5109188;27;45458;-82
2022/05/10 07:27:05;;;;;;;3.17;2.58;;;20.00;76.50;;;;;;5104923;27;45345;-82
2022/05/10 07:29:32;;;;;;;3.45;2.97;;;20.00;76.70;;;;;;5100308;27;45475;-82
2022/05/10 07:31:59;;;;;;;2.88;2.60;;;20.00;76.60;;;;;;5113961;27;48466;-83
2022/05/10 07:34:26;;;;;;;4.50;2.25;;;20.00;76.80;;;;;;5104368;27;45279;-83
2022/05/10 07:36:54;;;;;;;3.90;2.45;;;20.00;76.60;;;;;;5107309;27;45226;-83
2022/05/10 07:39:22;;;;;;;2.30;2.10;;;20.00;76.40;;;;;;5105947;27;45530;-82
2022/05/10 07:41:54;;;;;;;2.63;2.33;;;20.00;76.60;;;;;;5099949;27;47507;-82
2022/05/10 07:44:22;;;;;;;4.20;2.30;;;20.00;76.60;;;;;;5108539;27;45148;-82
2022/05/10 07:46:49;;;;;;;2.50;2.30;;;20.00;77.00;;;;;;5109177;27;45388;-82
2022/05/10 07:49:16;;;;;;;2.80;2.50;;;20.00;77.00;;;;;;5103408;27;45504;-82
2022/05/10 07:51:43;;;;;;;2.90;2.60;;;20.00;77.20;;;;;;5103707;27;48534;-82
2022/05/10 07:54:11;;;;;;;2.13;1.92;;;19.90;77.20;;;;;;5096461;27;45765;-83
2022/05/10 07:56:38;;;;;;;3.20;2.55;;;20.00;77.50;;;;;;5107594;27;45286;-82
2022/05/10 07:59:05;;;;;;;3.10;2.50;;;19.90;77.50;;;;;;5103005;27;45424;-82
2022/05/10 08:01:32;;;;;;;4.30;2.42;;;20.00;78.50;;;;;;5103492;27;45366;-82
2022/05/10 08:03:59;;;;;;;2.75;2.10;;;19.90;77.80;;;;;;5096520;27;45344;-83
2022/05/10 08:06:26;;;;;;;2.40;2.10;;;20.00;78.20;;;;;;5109411;27;45226;-83
2022/05/10 08:08:53;;;;;;;2.33;2.03;;;20.00;78.20;;;;;;5105206;27;45246;-83
2022/05/10 08:11:22;;;;;;;2.80;2.30;;;20.00;78.20;;;;;;5106517;27;47395;-83
2022/05/10 08:13:49;;;;;;;3.00;2.03;;;20.00;78.00;;;;;;5123592;27;45304;-84
2022/05/10 08:16:17;;;;;;;2.75;2.30;;;19.90;78.10;;;;;;5129174;27;45234;-83
2022/05/10 08:18:45;;;;;;;2.10;1.90;;;20.00;78.20;;;;;;5128354;27;45333;-82
2022/05/10 08:21:13;;;;;;;3.08;2.20;;;19.90;77.90;;;;;;5114347;27;48540;-82
2022/05/10 08:23:40;;;;;;;3.92;2.53;;;20.00;78.10;;;;;;5108020;27;45227;-83
2022/05/10 08:26:08;;;;;;;2.70;2.03;;;20.00;78.20;;;;;;5107876;27;45170;-82
2022/05/10 08:28:37;;;;;;;3.17;2.08;;;20.00;77.90;;;;;;5123326;27;45601;-82
2022/05/10 08:31:06;;;;;;;3.97;2.20;;;20.00;77.90;;;;;;5113575;27;46567;-83
2022/05/10 08:33:35;;;;;;;3.08;2.30;;;20.00;77.70;;;;;;5106153;27;46217;-83
2022/05/10 08:36:02;;;;;;;2.83;1.95;;;20.00;77.70;;;;;;5106231;27;45247;-85
2022/05/10 08:38:31;;;;;;;7.22;2.33;;;20.00;77.80;;;;;;5102449;27;45226;-84
2022/05/10 08:41:02;;;;;;;3.95;2.22;;;20.00;77.40;;;;;;5102812;27;48075;-84
2022/05/10 08:43:34;;;;;;;4.28;2.13;;;20.00;77.10;;;;;;5104624;27;45246;-84
2022/05/10 08:46:03;;;;;;;4.00;2.33;;;20.00;77.40;;;;;;5107677;27;45339;-83
2022/05/10 08:48:32;;;;;;;2.75;2.15;;;20.00;77.80;;;;;;5104314;27;45529;-84
2022/05/10 08:51:00;;;;;;;3.30;2.10;;;20.00;77.80;;;;;;5098204;27;47547;-84
2022/05/10 08:53:28;;;;;;;2.38;1.67;;;20.00;77.90;;;;;;5092548;27;45694;-84
2022/05/10 08:55:58;;;;;;;5.35;2.33;;;20.00;78.00;;;;;;5108419;27;45649;-84
2022/05/10 08:58:43;;;;;;;2.53;1.95;;;20.00;78.30;;;;;;5121991;27;45506;-84
2022/05/10 09:01:16;;;;;;;3.13;2.00;;;20.00;78.20;;;;;;5113957;27;48209;-84
2022/05/10 09:03:47;;;;;;;3.28;1.98;;;20.00;78.20;;;;;;5101101;27;45139;-84
2022/05/10 09:06:23;;;;;;;3.20;1.98;;;20.00;78.20;;;;;;5116011;27;45246;-84
2022/05/10 09:09:09;;;;;;;2.72;1.90;;;20.00;78.20;;;;;;5093569;27;45216;-84
2022/05/10 09:11:46;;;;;;;2.38;1.90;;;20.00;77.80;;;;;;5125996;27;48511;-84
2022/05/10 09:14:15;;;;;;;2.88;1.80;;;20.00;78.00;;;;;;5109743;27;45415;-84
2022/05/10 09:16:43;;;;;;;2.88;1.80;;;20.00;77.80;;;;;;5104374;27;45219;-84
2022/05/10 09:19:12;;;;;;;3.38;1.90;;;20.00;77.70;;;;;;5109969;27;46534;-84
2022/05/10 09:21:47;;;;;;;3.03;1.85;;;20.00;77.50;;;;;;5110512;27;46231;-84
2022/05/10 09:24:25;;;;;;;3.90;1.92;;;20.00;77.10;;;;;;5102895;27;45313;-85
2022/05/10 09:26:56;;;;;;;2.70;1.95;;;20.00;77.10;;;;;;5108587;27;45570;-84
2022/05/10 09:29:31;;;;;;;2.67;1.65;;;20.00;76.80;;;;;;5104238;27;45283;-84
2022/05/10 09:34:59;;;;;;;2.05;1.65;;;20.10;76.10;;;;;;5092529;27;45399;-83
2022/05/10 09:37:30;;;;;;;2.30;1.80;;;20.00;76.10;;;;;;5120563;27;45328;-84
2022/05/10 09:40:20;;;;;;;2.55;1.77;;;20.00;76.00;;;;;;5097393;27;46539;-85
2022/05/10 09:42:50;;;;;;;2.42;1.70;;;20.00;75.60;;;;;;5111789;27;46473;-85
2022/05/10 09:45:20;;;;;;;2.15;1.60;;;20.00;75.80;;;;;;5118207;27;45391;-85
2022/05/10 09:47:57;;;;;;;2.50;1.98;;;20.00;75.90;;;;;;5107147;27;45612;-85
2022/05/10 09:50:30;;;;;;;2.88;1.70;;;20.00;76.10;;;;;;5108725;27;45332;-84
2022/05/10 09:53:10;;;;;;;2.05;1.73;;;20.00;76.30;;;;;;5105784;27;45982;-85
2022/05/10 09:55:38;;;;;;;1.65;1.40;;;20.00;76.30;;;;;;5101441;27;45336;-84
2022/05/10 09:58:17;;;;;;;1.63;1.42;;;20.00;76.30;;;;;;5103668;27;45199;-84
2022/05/10 10:00:51;;;;;;;2.00;1.67;;;20.00;76.30;;;;;;5089082;27;45720;-83
2022/05/10 10:03:26;;;;;;;1.90;1.40;;;20.00;76.10;;;;;;5092472;27;45992;-84
2022/05/10 10:05:54;;;;;;;1.75;1.52;;;20.00;76.10;;;;;;5112583;27;45250;-84
2022/05/10 10:08:38;;;;;;;3.25;1.55;;;20.00;75.60;;;;;;5129574;27;45514;-84
2022/05/10 10:11:15;;;;;;;2.38;1.50;;;20.10;75.30;;;;;;5128913;27;45403;-84
2022/05/10 10:13:43;;;;;;;2.05;1.52;;;20.00;75.10;;;;;;5107479;27;47345;-84
2022/05/10 10:16:17;;;;;;;2.15;1.48;;;20.10;74.80;;;;;;5109216;27;45740;-84
2022/05/10 10:18:48;;;;;;;3.42;1.58;;;20.10;74.70;;;;;;5109010;27;45252;-84
2022/05/10 10:21:21;;;;;;;2.08;1.48;;;20.10;74.50;;;;;;5108721;27;45480;-84
2022/05/10 10:23:52;;;;;;;2.60;1.55;;;20.10;74.40;;;;;;5100296;27;48211;-84
2022/05/10 10:26:26;;;;;;;1.85;1.45;;;20.10;74.20;;;;;;5094950;27;45343;-84
2022/05/10 10:28:57;;;;;;;4.43;1.60;;;20.10;74.20;;;;;;5099320;27;45467;-85
2022/05/10 10:31:28;;;;;;;2.08;1.33;;;20.10;74.50;;;;;;5107252;27;45339;-84
2022/05/10 10:34:02;;;;;;;1.75;1.33;;;20.10;74.50;;;;;;5109184;27;47805;-84
2022/05/10 10:36:34;;;;;;;2.40;1.50;;;20.10;74.30;;;;;;5109988;27;45232;-83
2022/05/10 10:39:07;;;;;;;2.55;1.58;;;20.10;75.00;;;;;;5107558;27;45166;-84
2022/05/10 10:41:40;;;;;;;2.78;1.52;;;20.10;73.70;;;;;;5098281;27;45345;-84
2022/05/10 10:44:16;;;;;;;2.00;1.60;;;20.10;74.50;;;;;;5099428;27;45361;-84
2022/05/10 10:46:49;;;;;;;2.55;1.50;;;20.10;73.30;;;;;;5107028;27;45328;-85
2022/05/10 10:49:24;;;;;;;1.88;1.50;;;20.10;72.90;;;;;;5104998;27;45176;-84
2022/05/10 10:51:52;;;;;;;1.45;1.35;;;20.10;73.30;;;;;;5107546;27;45290;-84
2022/05/10 10:54:21;;;;;;;1.83;1.50;;;20.10;73.10;;;;;;5109354;27;46252;-84
2022/05/10 10:57:09;;;;;;;2.17;1.50;;;20.10;72.80;;;;;;5108739;27;45295;-84
2022/05/10 10:59:51;;;;;;;1.85;1.50;;;20.00;72.70;;;;;;5086462;28;45281;-83
2022/05/10 11:02:45;;;;;;;2.60;1.50;;;20.00;73.00;;;;;;5105250;27;45313;-83
2022/05/10 11:05:37;;;;;;;1.60;1.50;;;20.10;73.00;;;;;;5105201;27;47129;-84
2022/05/10 11:08:13;;;;;;;1.40;1.30;;;20.10;72.90;;;;;;5105693;27;45289;-83
2022/05/10 11:10:47;;;;;;;1.45;1.35;;;20.20;73.00;;;;;;5089961;27;45311;-84
2022/05/10 11:13:26;;;;;;;4.88;1.73;;;20.20;72.90;;;;;;5101588;27;45221;-85
2022/05/10 11:16:00;;;;;;;1.67;1.40;;;20.20;73.30;;;;;;5108445;27;47962;-83
2022/05/10 11:18:40;;;;;;;1.88;1.40;;;20.20;73.10;;;;;;5108552;27;45285;-83
2022/05/10 11:21:20;;;;;;;1.38;1.27;;;20.20;73.30;;;;;;5091239;27;45207;-83
2022/05/10 11:24:01;;;;;;;1.58;1.40;;;20.20;73.50;;;;;;5104821;27;45342;-84
2022/05/10 11:26:41;;;;;;;1.60;1.27;;;20.20;73.60;;;;;;5107344;27;48502;-84
2022/05/10 11:29:27;;;;;;;2.13;1.45;;;20.20;73.20;;;;;;5105246;27;45435;-83
2022/05/10 11:32:06;;;;;;;2.25;1.58;;;20.20;72.80;;;;;;5108931;27;45231;-84
2022/05/10 11:34:51;;;;;;;1.70;1.33;;;20.20;72.80;;;;;;5099006;27;45302;-82
2022/05/10 11:37:32;;;;;;;2.60;1.50;;;20.20;72.90;;;;;;5100738;27;45477;-83
2022/05/10 11:40:23;;;;;;;2.15;1.67;;;20.20;72.70;;;;;;5096467;27;45244;-82
2022/05/10 11:43:08;;;;;;;1.50;1.40;;;20.20;72.90;;;;;;5105294;27;45137;-82
2022/05/10 11:45:58;;;;;;;2.13;1.35;;;20.20;73.50;;;;;;5108213;27;45297;-82
2022/05/10 11:48:54;;;;;;;1.35;1.15;;;20.20;73.80;;;;;;5093106;27;46183;-83
2022/05/10 11:51:55;;;;;;;1.95;1.38;;;20.20;73.70;;;;;;5087883;28;45235;-83
2022/05/10 11:55:03;;;;;;;1.88;1.50;;;20.20;73.80;;;;;;5097067;27;45496;-84
2022/05/10 11:57:34;;;;;;;1.88;1.63;;;20.30;73.10;;;;;;5106275;27;45325;-84
2022/05/10 12:00:33;;;;;;;1.33;1.23;;;20.30;73.20;;;;;;5105859;27;46181;-84
2022/05/10 12:03:00;;;;;;;1.52;1.42;;;20.20;73.30;;;;;;5091258;27;45163;-84
2022/05/10 12:05:29;;;;;;;2.38;1.58;;;20.30;73.60;;;;;;5108979;27;45221;-86
2022/05/10 12:07:58;;;;;;;1.83;1.52;;;20.20;73.70;;;;;;5110017;27;45352;-85
2022/05/10 12:10:42;;;;;;;1.88;1.30;;;20.30;73.80;;;;;;5127237;27;45379;-85
2022/05/10 12:13:10;;;;;;;2.15;1.40;;;20.20;74.20;;;;;;5127900;27;45392;-84
2022/05/10 12:21:27;;;;;;;2.05;1.55;;;20.20;73.10;;;;;;5063887;28;45396;-84
2022/05/10 12:24:07;;;;;;;1.85;1.42;;;20.30;73.00;;;;;;5063982;28;45447;-84
2022/05/10 12:26:43;;;;;;;4.40;1.42;;;20.30;72.90;;;;;;5086410;27;45283;-84
2022/05/10 12:29:43;;;;;;;1.80;1.40;;;20.20;72.50;;;;;;5106363;27;45342;-84
2022/05/10 12:32:31;;;;;;;1.73;1.35;;;20.30;72.60;;;;;;5107834;27;47423;-85
2022/05/10 12:35:00;;;;;;;2.42;1.67;;;20.30;72.70;;;;;;5106401;27;45267;-85
2022/05/10 12:37:49;;;;;;;3.78;1.80;;;20.20;72.60;;;;;;5108175;27;45258;-85
2022/05/10 12:40:24;;;;;;;1.73;1.42;;;20.20;72.60;;;;;;5105226;27;46075;-85
2022/05/10 12:43:16;;;;;;;1.92;1.63;;;20.20;72.80;;;;;;5104979;27;46447;-85
2022/05/10 12:45:47;;;;;;;4.70;1.98;;;20.20;72.60;;;;;;5108076;27;45193;-85
2022/05/10 12:48:29;;;;;;;1.75;1.60;;;20.20;72.70;;;;;;5121058;27;45158;-85
2022/05/10 12:51:04;;;;;;;2.80;2.00;;;20.20;72.70;;;;;;5122445;27;45171;-85
2022/05/10 12:53:40;;;;;;;2.15;1.60;;;20.20;72.80;;;;;;5128104;27;46188;-85
2022/05/10 12:56:14;;;;;;;2.50;1.38;;;20.20;72.80;;;;;;5108345;27;45163;-85
2022/05/10 12:58:45;;;;;;;1.95;1.45;;;20.20;72.80;;;;;;5087247;28;45250;-85
2022/05/10 13:01:14;;;;;;;2.85;1.67;;;20.20;72.70;;;;;;5101691;27;45299;-85
2022/05/10 13:03:46;;;;;;;2.25;1.70;;;20.20;72.80;;;;;;5105653;27;46358;-85
2022/05/10 13:06:21;;;;;;;2.63;1.73;;;20.20;72.80;;;;;;5112893;27;45337;-85
2022/05/10 13:09:04;;;;;;;1.80;1.60;;;20.20;72.60;;;;;;5107040;27;45244;-85
2022/05/10 13:11:40;;;;;;;2.13;1.48;;;20.20;72.60;;;;;;5104571;27;45251;-85
2022/05/10 13:14:08;;;;;;;1.77;1.50;;;20.30;72.80;;;;;;5126718;27;45474;-85
2022/05/10 13:16:36;;;;;;;2.25;1.27;;;20.20;72.30;;;;;;5106959;27;45285;-85
2022/05/10 13:19:04;;;;;;;3.22;1.77;;;20.30;72.40;;;;;;5105659;27;45297;-85
2022/05/10 13:21:32;;;;;;;3.17;1.70;;;20.20;72.40;;;;;;5106028;27;45351;-85